NCAR-RAP Real-Time Weather Data

Output produced by METARs form (21 May 2019  10:40 UTC)
found at http://weather.rap.ucar.edu/surface/
 
RJCH 211000Z 23010KT 9999 FEW015 SCT035 14/13 Q1002
RJCH 210900Z 22008KT 9999 FEW008 SCT020 BKN110 14/12 Q1001
RJCH 210800Z 20006KT 150V260 9999 FEW008 BKN120 15/13 Q1001
RJCH 210700Z 22009KT 9999 FEW007 BKN025 BKN060 15/13 Q1001
RJCH 210600Z 27008KT 240V310 9999 -SHRA FEW003 SCT008 BKN015 15/14 Q1001
RJCH 210545Z 27010KT 8000 -SHRA FEW002 BKN005 BKN010 14/14 Q1000 RMK 1ST002 5ST005 6ST010 A2955
RJCH 210506Z 19007KT 150V220 8000 -SHRA FEW002 BKN004 BKN015 15/15 Q1000 RMK 1ST002 5ST004 7ST015 A2953
RJCH 210500Z 18006KT 150V220 8000 -SHRA FEW003 BKN006 BKN015 15/15 Q1000
RJCH 210450Z 16006KT 130V190 8000 -SHRA FEW002 BKN006 BKN015 16/15 Q1000 RMK 1ST002 5ST006 6ST015 A2953
RJCH 210437Z 15006KT 5000 -SHRA BR FEW002 BKN007 BKN012 16/15 Q0999 RMK 1ST002 5ST007 6ST012 A2952
RJCH 210400Z 12009KT 8000 -SHRA FEW003 BKN012 BKN025 16/15 Q0999
RJCH 210300Z 12014KT 8000 -SHRA FEW003 BKN012 BKN030 16/15 Q0999
RJCH 210200Z 11013KT 8000 -SHRA FEW005 BKN012 BKN040 15/15 Q1000
RJCH 210150Z 11012KT 8000 -SHRA FEW003 BKN012 BKN018 15/15 Q1000 RMK 1ST003 5ST012 6ST018 A2955
RJCH 210145Z 11012KT 5000 SHRA BR FEW004 BKN012 BKN018 15/15 Q1000 RMK 1ST004 5ST012 6ST018 A2955
RJCH 210138Z 11012KT 4900 SHRA BR FEW004 BKN010 BKN018 15/15 Q1000 RMK 1ST004 5ST010 6ST018 A2955
RJCH 210100Z 11013KT 9000 -SHRA FEW004 BKN010 BKN018 15/14 Q1001
RJCH 210047Z 11013KT 7000 SHRA FEW004 BKN012 BKN025 15/14 Q1001 RMK 1ST004 5ST012 7CU025 A2956
RJCH 210000Z 11012KT 7000 -SHRA FEW004 BKN012 BKN030 16/15 Q1001
RJCH 202341Z 10012KT 7000 -SHRA FEW005 BKN010 BKN035 16/15 Q1001 RMK 1ST005 5ST010 7CU035 A2957
RJCH 202313Z 09007KT 6000 -SHRA FEW005 BKN009 BKN040 15/15 Q1002 RMK 1ST005 5ST009 7CU040 A2959
RJCH 202300Z 08007KT 5000 SHRA BR FEW005 BKN010 BKN050 15/14 Q1002
RJCH 202249Z 07006KT 5000 SHRA BR FEW005 BKN012 BKN050 14/14 Q1002 RMK 1ST005 5ST012 7CU050 A2960
RJCH 202200Z 08006KT 6000 -SHRA FEW006 BKN015 BKN060 14/14 Q1003
RJCH 202110Z 06005KT 8000 -SHRA FEW008 SCT015 BKN070 14/13 Q1003 RMK 1ST008 4ST015 7AC070 A2962
RJCH 201100Z 05006KT 020V090 9999 FEW025 SCT170 17/11 Q1007
RJCH 201000Z 05006KT 9999 FEW025 BKN/// 18/11 Q1007
RJCH 200900Z 04006KT 360V070 9999 FEW030 BKN/// 20/12 Q1007
RJCH 200800Z 12009KT 9999 FEW030 BKN/// 22/12 Q1007
RJCH 200700Z 14009KT 9999 FEW030 BKN/// 22/12 Q1007
RJCH 200600Z 14012KT 9999 FEW030 SCT/// 22/12 Q1008
RJCH 200500Z 12013KT 9999 FEW040 SCT/// 24/12 Q1009
RJCH 200400Z 13014KT 9999 FEW030 BKN/// 22/11 Q1010
RJCH 200300Z 13014KT 9999 FEW040 BKN/// 22/12 Q1010
RJCH 200200Z 14008KT 9999 FEW008 BKN/// 21/12 Q1011
RJCH 200100Z 14012KT 9999 FEW008 SCT/// 21/12 Q1012
RJCH 200000Z 18005KT 140V220 9999 FEW005 SCT/// 18/12 Q1012
RJCH 192300Z 24005KT 190V270 9999 FEW008 BKN/// 16/12 Q1013
RJCH 192245Z 26010KT 9999 FEW005 SCT/// 16/12 Q1013 RMK 1ST005 A2994
RJCH 192200Z 17004KT 120V210 9999 FEW005 SCT/// 16/12 Q1013
RJCH 192110Z 07004KT 010V090 9999 FEW005 SCT/// 15/12 Q1014 RMK 1ST005 A2995
RJCH 191100Z VRB06KT 9999 FEW007 SCT/// 18/10 Q1017
RJCH 191000Z 05005KT 020V090 9999 FEW007 SCT/// 18/11 Q1017
RJCH 190900Z 07005KT 040V100 9999 FEW045 21/11 Q1018
RJCH 190800Z 13011KT 9999 FEW006 SCT/// 20/12 Q1018
RJCH 190700Z 14007KT 9999 FEW005 SCT/// 21/12 Q1018
RJCH 190600Z 17004KT 130V210 9999 FEW008 SCT/// 18/12 Q1018
RJCH 190500Z 17005KT 130V210 9999 FEW005 SCT/// 17/13 Q1019
RJCH 190413Z 17005KT 120V200 5000 PRFG BR FEW001 SCT002 15/12 Q1019 RMK 1ST001 3ST002 A3012 2000S-W FG S-W
RJCH 190400Z 16007KT 130V200 4500 PRFG BR FEW001 SCT002 14/12 Q1020
RJCH 190300Z 16008KT 130V190 9999 PRFG FEW001 SCT005 14/12 Q1020
RJCH 190200Z 16004KT 100V220 9999 PRFG FEW001 SCT005 BKN/// 14/12 Q1021
RJCH 190135Z 24003KT 190V300 5000 PRFG BR FEW001 SCT003 BKN/// 14/12 Q1021 RMK 2ST001 4ST003 A3016 9999N-E FG SW-NW
RJCH 190116Z 22004KT 120V260 4900 BCFG BR FEW001 BKN003 13/12 Q1021 RMK 2ST001 5ST003 A3016 9999N-SE
RJCH 190100Z 20004KT 110V260 9999 PRFG FEW001 SCT003 13/12 Q1021
RJCH 190000Z 17004KT 9999 R12/2000N PRFG FEW001 SCT003 13/12 Q1021
RJCH 182335Z 18004KT 3000 R12/1000VP2000U BCFG BR FEW001 SCT004 13/12 Q1021 RMK 2ST001 4ST004 A3016 9999N-E
RJCH 182326Z 17006KT 1400 R12/0800VP2000D BCFG BR FEW001 BKN004 12/11 Q1021 RMK 2ST001 5ST004 A3016 9999N-E
RJCH 182307Z 16005KT 120V180 9999 R12/2000N BCFG FEW001 SCT003 13/13 Q1021 RMK 2ST001 4ST003 A3016 2000S-NW
RJCH 182300Z 15005KT 9999 R12/0700VP2000U BCFG SCT001 BKN004 13/12 Q1021